Rejestracja

Wszystkie dane podawane są w czasie UTC za wyjątkiem miejsc gdzie jest jednoznacznie podane, że jest inaczej. Dane podawane w serwisie mają charakter informacyjny!!!
Informacje w sprawie dostępu do serwisu pod numerem tel. +48 261-828-559 lub +48 261-828-138
Informacja dla żołnierzy i pracowników wojska: Prosimy o niezwłoczną zmianę adresu e-mail w profilu użytkownika na pocztę w domenie @ron.mil.pl
Brak służbowego adresu e-mail skutkuje usunięciem konta.

Aktualna Pogoda
 
Pogoda w Polsce
16°C Szczecin 15°C Suwałki 20°C Warszawa 19°C Poznan
19°C Opole 17°C Kraków 16°C Rzeszów
Więcej miast w Polsce

Pogoda w Europie
19°C Berlin 24°C Paryz 20°C Bruksela 16°C Oslo
23°C Praga 18°C Zagrzeb
Więcej miast w Europie

Metary wojskowe test
METAR EPBC 151900Z AUTO 24001KT CAVOK 20/12 Q1016=
METAR EPCE 152030Z VRB01KT CAVOK 08/06 Q1019 RMK 079 087 0/0=
METAR EPDA 152000Z 29008KT 240V310 CAVOK 15/10 Q1019 RMK 151 071 0/0=
METAR EPDE 152000Z VRB02KT CAVOK 16/13 Q1017 RMK 160 081 5/2=
METAR EPIR 152000Z 30008KT CAVOK 19/14 Q1017 RMK 189 074 4/4=
METAR EPKS 152000Z 01005KT CAVOK 20/18 Q1018 RMK 197 088 4/4=
METAR EPLK 152000Z 00000KT CAVOK 19/13 Q1017 RMK 191 067 5/2=
METAR EPLY 152000Z VRB02KT CAVOK 21/15 Q1017 RMK 210 070 7/3=
METAR EPMB 152000Z 10002KT CAVOK 11/08 Q1018 RMK 114 082 0/0=
METAR EPMI 152030Z 36005KT CAVOK 12/05 Q1020 RMK 118 065 1/1=
METAR EPMM 152030Z VRB01KT 9999 BKN110 16/16 Q1017 RMK 164 095 6/6=
METAR EPOK 152030Z 28007KT CAVOK 12/07 Q1019 RMK 120 073 1/1=
METAR EPPR 152030Z AUTO 25002KT 12/06 Q1019 RMK 119 068 ///=
METAR EPPW 152000Z 01006KT 9999 FEW060 BKN130 19/15 Q1018 RMK 192 074 6/1=
METAR EPSN 152000Z 35003KT CAVOK 12/07 Q1020 RMK 116 074 0/0=
METAR EPTM 152000Z VRB02KT CAVOK 18/11 Q1017 RMK 180 065 5/5=


 

Prawa autorskie©2007 SSH SZ RP. Wszelkie prawa zastrzeżone.